Time;durP1;ratioP1;P1;durP2;ratioP2;P2;SDS_P1;SDS_P2;PMS_P1;PMS_P2;Temp;Humidity;BMP_temperature;BMP_pressure;BME280_temperature;BME280_humidity;BME280_pressure;Samples;Min_cycle;Max_cycle;Signal;HPM_P1;HPM_P2
2022/08/12 00:42:59;;;;;;;7.05;5.28;;;;;;;22.39;71.67;94780.38;6304593;22;20167;-76
2022/08/12 00:46:29;;;;;;;6.22;5.10;;;;;;;22.26;72.18;94776.56;6305052;22;20191;-75
2022/08/12 00:48:16;;;;;;;7.78;5.10;;;;;;;22.27;72.05;94780.81;6304405;22;20653;-76
2022/08/12 00:50:43;;;;;;;5.70;4.70;;;;;;;22.31;72.32;94781.78;6303993;22;20721;-77
2022/08/12 00:53:09;;;;;;;7.93;5.05;;;;;;;22.39;71.73;94775.06;6304448;22;20175;-76
2022/08/12 00:55:42;;;;;;;6.45;5.15;;;;;;;22.36;71.92;94783.59;6304340;22;20658;-75
2022/08/12 00:58:09;;;;;;;5.72;4.80;;;;;;;22.27;72.36;94778.16;6304048;22;20163;-75
2022/08/12 01:00:42;;;;;;;6.97;4.70;;;;;;;22.21;72.69;94787.25;6304134;22;20172;-76
2022/08/12 01:03:14;;;;;;;6.40;4.70;;;;;;;22.19;72.86;94788.63;6303632;22;20202;-77
2022/08/12 01:11:30;;;;;;;5.35;4.85;;;;;;;22.02;73.75;94797.81;6241568;22;20191;-76
2022/08/12 01:13:59;;;;;;;5.72;5.10;;;;;;;21.87;74.22;94791.94;6303481;22;20156;-76
2022/08/12 01:16:27;;;;;;;6.32;5.15;;;;;;;21.77;74.90;94797.34;6304544;22;20168;-76
2022/08/12 01:18:56;;;;;;;7.45;5.50;;;;;;;21.43;76.47;94797.47;6304151;22;20243;-76
2022/08/12 01:21:45;;;;;;;7.68;5.47;;;;;;;21.16;77.95;94799.88;6304732;22;20187;-76
2022/08/12 01:24:22;;;;;;;8.02;6.15;;;;;;;20.91;79.43;94806.97;6304397;22;20176;-77
2022/08/12 01:26:53;;;;;;;10.55;6.10;;;;;;;20.78;80.19;94812.88;6303944;22;20167;-76
2022/08/12 01:29:25;;;;;;;7.50;6.30;;;;;;;20.65;80.71;94799.53;6304442;22;20161;-75
2022/08/12 01:31:54;;;;;;;6.65;5.65;;;;;;;20.72;80.79;94808.69;6305222;22;20156;-75
2022/08/12 01:34:28;;;;;;;9.98;6.50;;;;;;;20.81;80.65;94807.03;6304257;22;20168;-74
2022/08/12 01:36:57;;;;;;;11.38;5.90;;;;;;;20.94;79.62;94798.50;6305122;22;20470;-75
2022/08/12 01:39:30;;;;;;;7.63;5.78;;;;;;;21.12;78.71;94796.22;6304923;22;20171;-75
2022/08/12 01:42:02;;;;;;;7.57;5.90;;;;;;;21.28;77.82;94802.94;6304824;22;20164;-75
2022/08/12 01:44:31;;;;;;;7.22;5.80;;;;;;;21.31;77.10;94802.38;6304750;22;20172;-75
2022/08/12 01:47:05;;;;;;;11.18;6.55;;;;;;;21.03;78.39;94806.59;6304940;22;20168;-76
2022/08/12 01:49:49;;;;;;;7.00;5.95;;;;;;;20.88;79.08;94789.03;6304549;22;20205;-76
2022/08/12 01:52:34;;;;;;;9.88;5.90;;;;;;;21.05;78.75;94796.53;6305160;22;20171;-75
2022/08/12 01:55:05;;;;;;;6.97;6.07;;;;;;;21.19;78.12;94791.38;6306847;22;20210;-75
2022/08/12 01:57:43;;;;;;;7.05;5.82;;;;;;;21.24;77.45;94797.41;6306871;22;20240;-75
2022/08/12 02:00:12;;;;;;;8.93;5.55;;;;;;;21.31;77.17;94791.78;6306777;22;20159;-75
2022/08/12 02:02:45;;;;;;;6.25;5.55;;;;;;;21.34;77.07;94789.38;6306373;22;20160;-76
2022/08/12 02:11:20;;;;;;;7.45;5.80;;;;;;;21.53;76.06;94770.91;6306862;22;20497;-76
2022/08/12 02:14:24;;;;;;;7.63;5.40;;;;;;;21.53;75.43;94789.41;6306444;22;20599;-75
2022/08/12 02:17:08;;;;;;;7.55;5.53;;;;;;;21.50;75.66;94795.28;6302182;22;20171;-75
2022/08/12 02:19:56;;;;;;;6.80;5.57;;;;;;;21.42;76.05;94786.13;6306129;22;20170;-75
2022/08/12 02:22:28;;;;;;;10.40;5.75;;;;;;;21.32;76.42;94780.94;6305754;22;20207;-75
2022/08/12 02:25:01;;;;;;;7.72;5.60;;;;;;;21.20;77.18;94783.19;6306245;22;20199;-75
2022/08/12 02:27:34;;;;;;;7.65;5.97;;;;;;;21.18;77.76;94779.25;6306146;22;20160;-76
2022/08/12 02:30:02;;;;;;;7.47;5.57;;;;;;;21.13;78.57;94777.44;6306477;22;20152;-75
2022/08/12 02:32:32;;;;;;;9.45;6.13;;;;;;;21.03;80.23;94785.44;6305881;22;20961;-74
2022/08/12 02:34:59;;;;;;;5.82;5.22;;;;;;;20.89;82.13;94781.91;6306678;22;20171;-74
2022/08/12 02:37:29;;;;;;;7.78;5.97;;;;;;;20.91;83.65;94780.53;6306728;22;20572;-74
2022/08/12 02:39:59;;;;;;;10.02;6.72;;;;;;;20.75;85.45;94792.31;6306875;22;20156;-76
2022/08/12 02:42:29;;;;;;;7.50;5.90;;;;;;;20.57;87.74;94785.06;6305964;22;20195;-76
2022/08/12 02:44:57;;;;;;;11.57;6.82;;;;;;;20.54;89.98;94793.56;6305722;22;20577;-76
2022/08/12 02:47:30;;;;;;;7.07;6.10;;;;;;;20.56;90.79;94783.50;6306910;22;20179;-75
2022/08/12 02:49:58;;;;;;;12.98;7.28;;;;;;;20.59;93.82;94785.56;6306103;22;20157;-76
2022/08/12 02:52:26;;;;;;;10.25;7.28;;;;;;;20.57;94.71;94785.06;6306046;22;20161;-75
2022/08/12 02:55:00;;;;;;;16.33;7.32;;;;;;;20.60;96.16;94779.25;6306310;22;20198;-75
2022/08/12 02:57:27;;;;;;;9.05;6.55;;;;;;;20.72;97.24;94781.53;6306010;22;20157;-75
2022/08/12 02:59:55;;;;;;;9.85;6.70;;;;;;;20.72;98.10;94784.94;6305698;22;20175;-75
2022/08/12 03:02:27;;;;;;;7.95;6.78;;;;;;;20.68;99.73;94785.78;6305493;22;20233;-75
2022/08/12 03:04:57;;;;;;;9.63;6.75;;;;;;;20.52;100.00;94776.41;6304828;22;20176;-75
2022/08/12 03:07:31;;;;;;;10.32;6.68;;;;;;;20.45;100.00;94789.13;6305891;22;20243;-76
2022/08/12 03:10:04;;;;;;;9.73;6.72;;;;;;;20.43;100.00;94794.69;6306584;22;20184;-75
2022/08/12 03:12:31;;;;;;;7.68;6.78;;;;;;;20.52;100.00;94786.97;6305785;22;20167;-75
2022/08/12 03:15:02;;;;;;;11.23;7.03;;;;;;;20.56;100.00;94790.63;6305722;22;20477;-75
2022/08/12 03:17:33;;;;;;;11.07;6.97;;;;;;;20.63;100.00;94788.47;6306289;22;20162;-76
2022/08/12 03:20:02;;;;;;;12.48;8.27;;;;;;;20.60;100.00;94794.28;6305854;22;20210;-76
2022/08/12 03:22:31;;;;;;;11.80;7.30;;;;;;;20.52;100.00;94785.09;6305307;22;20192;-77
2022/08/12 03:25:03;;;;;;;16.45;8.23;;;;;;;20.49;100.00;94790.94;6305915;22;20188;-75
2022/08/12 03:27:31;;;;;;;11.05;7.70;;;;;;;20.36;100.00;94784.44;6305545;22;20164;-76
2022/08/12 03:29:58;;;;;;;12.30;7.88;;;;;;;20.25;100.00;94790.06;6305621;22;20230;-76
2022/08/12 03:32:26;;;;;;;8.93;7.20;;;;;;;20.04;100.00;94776.19;6305656;22;20221;-77
2022/08/12 03:34:58;;;;;;;9.90;7.50;;;;;;;19.99;100.00;94778.06;6305548;22;20184;-75
2022/08/12 03:37:29;;;;;;;12.52;8.23;;;;;;;20.06;100.00;94792.50;6305558;22;20148;-73
2022/08/12 03:39:56;;;;;;;12.82;8.43;;;;;;;20.09;100.00;94786.69;6304602;22;20188;-72
2022/08/12 03:42:32;;;;;;;10.40;7.45;;;;;;;20.05;100.00;94790.16;6304755;22;20230;-73
2022/08/12 04:01:56;;;;;;;10.68;8.40;;;;;;;20.19;100.00;94802.47;6305080;22;20298;-73
2022/08/12 04:04:24;;;;;;;10.73;8.02;;;;;;;20.20;100.00;94796.13;6305167;22;20180;-72
2022/08/12 04:06:52;;;;;;;11.85;8.65;;;;;;;20.14;100.00;94805.16;6305385;22;20195;-72
2022/08/12 04:09:22;;;;;;;13.15;8.27;;;;;;;20.07;100.00;94803.88;6305250;22;20164;-72
2022/08/12 04:14:34;;;;;;;8.82;7.93;;;;;;;20.03;100.00;94795.69;6304689;22;20661;-73
2022/08/12 04:17:02;;;;;;;11.90;9.18;;;;;;;19.98;100.00;94811.56;6304940;22;20164;-73
2022/08/12 04:19:31;;;;;;;11.43;9.32;;;;;;;19.95;100.00;94804.19;6305006;22;20168;-73
2022/08/12 04:22:00;;;;;;;13.18;9.60;;;;;;;19.95;100.00;94798.91;6284197;22;20235;-73
2022/08/12 04:24:29;;;;;;;12.15;9.38;;;;;;;19.99;100.00;94801.81;6282620;22;20172;-73
2022/08/12 04:26:55;;;;;;;14.07;10.80;;;;;;;19.92;100.00;94799.47;6299408;22;20175;-71
2022/08/12 04:29:25;;;;;;;13.55;10.27;;;;;;;19.91;100.00;94799.75;6301539;22;20499;-72
2022/08/12 04:31:54;;;;;;;14.50;10.25;;;;;;;19.92;100.00;94791.53;6300689;22;20168;-73
2022/08/12 04:34:25;;;;;;;11.98;9.00;;;;;;;19.94;100.00;94793.94;6301272;22;20211;-73
2022/08/12 04:36:55;;;;;;;12.20;9.20;;;;;;;19.94;100.00;94794.69;6300287;22;20167;-73
2022/08/12 04:39:22;;;;;;;12.25;9.13;;;;;;;19.95;100.00;94793.63;6301975;22;20210;-73
2022/08/12 04:41:50;;;;;;;11.93;9.15;;;;;;;20.04;100.00;94796.50;6301418;22;20191;-73
2022/08/12 04:44:17;;;;;;;13.00;9.73;;;;;;;20.07;100.00;94799.38;6300390;22;20179;-73
2022/08/12 04:46:44;;;;;;;11.30;9.40;;;;;;;20.11;100.00;94804.91;6301093;22;20175;-73
2022/08/12 04:49:11;;;;;;;11.43;9.55;;;;;;;20.16;100.00;94800.38;6301862;22;20168;-73
2022/08/12 04:51:38;;;;;;;11.60;9.65;;;;;;;20.13;100.00;94802.78;6300276;22;20172;-73
2022/08/12 04:54:05;;;;;;;12.40;9.55;;;;;;;19.96;100.00;94802.34;6299916;22;20511;-73
2022/08/12 04:56:32;;;;;;;14.23;10.27;;;;;;;19.89;100.00;94800.00;6300884;22;20168;-73
2022/08/12 04:59:01;;;;;;;13.25;10.45;;;;;;;19.93;100.00;94801.03;6300895;22;20591;-73
2022/08/12 05:01:29;;;;;;;12.88;9.75;;;;;;;19.93;100.00;94793.13;6302137;22;20168;-72
2022/08/12 05:03:58;;;;;;;14.70;9.95;;;;;;;19.79;100.00;94800.84;6300651;22;20468;-73
2022/08/12 05:06:25;;;;;;;13.23;10.50;;;;;;;19.72;100.00;94800.34;6301403;22;20214;-73
2022/08/12 05:08:54;;;;;;;13.85;10.32;;;;;;;19.67;100.00;94794.31;6301348;22;20172;-74
2022/08/12 05:11:23;;;;;;;12.50;10.38;;;;;;;19.71;100.00;94798.00;6301616;22;20172;-73
2022/08/12 05:13:52;;;;;;;15.02;10.63;;;;;;;19.79;100.00;94797.44;6300446;22;20611;-73
2022/08/12 05:16:20;;;;;;;12.93;10.18;;;;;;;19.88;100.00;94803.72;6302130;22;20281;-73
2022/08/12 05:18:48;;;;;;;13.75;10.93;;;;;;;19.80;100.00;94806.91;6301394;22;20175;-72
2022/08/12 05:21:15;;;;;;;12.70;10.32;;;;;;;19.71;100.00;94787.44;6301051;22;20168;-78
2022/08/12 05:23:42;;;;;;;14.85;10.50;;;;;;;19.94;100.00;94801.84;6300250;22;20199;-72
2022/08/12 05:26:09;;;;;;;13.60;9.82;;;;;;;19.94;100.00;94799.19;6301458;22;20202;-72
2022/08/12 05:28:36;;;;;;;13.75;9.57;;;;;;;19.81;100.00;94790.81;6300842;22;20522;-72
2022/08/12 05:31:04;;;;;;;11.40;9.98;;;;;;;19.91;100.00;94802.38;6301045;22;20662;-72
2022/08/12 05:33:36;;;;;;;11.50;9.50;;;;;;;20.04;100.00;94797.28;6301132;22;20164;-73
2022/08/12 05:36:06;;;;;;;13.13;10.27;;;;;;;20.18;100.00;94800.88;6301329;22;20157;-73
2022/08/12 05:41:21;;;;;;;15.13;10.57;;;;;;;20.24;100.00;94809.56;6301410;22;20245;-72
2022/08/12 05:43:49;;;;;;;15.75;10.85;;;;;;;20.45;100.00;94808.41;6301305;22;20176;-73
2022/08/12 05:46:15;;;;;;;20.50;12.18;;;;;;;20.54;100.00;94811.25;6301428;22;20195;-72
2022/08/12 05:48:44;;;;;;;12.50;10.73;;;;;;;20.58;100.00;94823.59;6300868;22;20611;-73
2022/08/12 05:51:11;;;;;;;14.02;10.80;;;;;;;20.49;100.00;94827.13;6300874;22;21124;-73
2022/08/12 05:53:38;;;;;;;15.05;11.55;;;;;;;20.44;100.00;94821.88;6300599;22;20488;-73
2022/08/12 05:56:06;;;;;;;13.02;11.02;;;;;;;20.37;100.00;94817.69;6301037;22;20190;-74
2022/08/12 05:58:36;;;;;;;14.80;11.95;;;;;;;20.32;100.00;94811.66;6301637;22;20175;-77
2022/08/12 06:01:03;;;;;;;15.88;12.45;;;;;;;20.40;100.00;94815.56;6301062;22;20164;-76
2022/08/12 06:03:30;;;;;;;16.25;12.05;;;;;;;20.47;100.00;94821.31;6301263;22;20171;-76
2022/08/12 06:05:58;;;;;;;15.93;11.68;;;;;;;20.49;100.00;94814.69;6300813;22;20192;-77
2022/08/12 06:08:26;;;;;;;13.98;11.18;;;;;;;20.57;100.00;94815.97;6300242;22;20168;-76
2022/08/12 06:10:55;;;;;;;12.70;10.98;;;;;;;20.86;100.00;94814.16;6300342;22;20176;-76
2022/08/12 06:13:23;;;;;;;15.00;11.38;;;;;;;21.04;100.00;94824.00;6301887;22;20175;-76
2022/08/12 06:15:50;;;;;;;15.15;11.63;;;;;;;21.18;100.00;94816.28;6300509;22;20643;-77
2022/08/12 06:18:17;;;;;;;14.82;11.45;;;;;;;21.19;100.00;94815.19;6301412;22;20229;-75
2022/08/12 06:20:47;;;;;;;12.27;10.93;;;;;;;21.14;100.00;94815.25;6300447;22;20169;-76
2022/08/12 06:23:16;;;;;;;15.10;11.52;;;;;;;21.10;100.00;94815.00;6300063;22;20204;-76
2022/08/12 06:25:45;;;;;;;15.55;11.88;;;;;;;21.11;100.00;94813.94;6300229;22;20249;-77
2022/08/12 06:28:18;;;;;;;16.42;12.05;;;;;;;21.07;100.00;94818.16;6300483;22;20172;-77
2022/08/12 06:30:45;;;;;;;14.00;11.25;;;;;;;21.12;100.00;94812.88;6300800;22;20152;-78
2022/08/12 06:33:13;;;;;;;18.88;13.07;;;;;;;21.20;100.00;94811.47;6300499;22;20257;-77
2022/08/12 06:35:40;;;;;;;17.00;12.48;;;;;;;21.26;100.00;94810.38;6300532;22;20182;-77
2022/08/12 06:38:15;;;;;;;16.75;12.63;;;;;;;21.31;100.00;94807.66;6301133;22;20176;-77
2022/08/12 06:43:28;;;;;;;17.02;12.50;;;;;;;21.52;100.00;94811.66;6302812;22;20163;-77
2022/08/12 06:45:56;;;;;;;15.38;11.40;;;;;;;21.63;100.00;94815.78;6302374;22;20196;-78
2022/08/12 06:48:25;;;;;;;18.80;11.82;;;;;;;21.71;100.00;94809.84;6303446;22;20376;-77
2022/08/12 06:50:52;;;;;;;13.75;10.32;;;;;;;21.77;100.00;94811.38;6301761;22;20222;-77
2022/08/12 06:53:18;;;;;;;15.57;10.02;;;;;;;21.83;100.00;94806.78;6302081;22;20172;-77
2022/08/12 06:55:47;;;;;;;10.77;8.90;;;;;;;21.88;100.00;94812.03;6302264;22;20168;-76
2022/08/12 06:58:15;;;;;;;12.73;9.70;;;;;;;21.83;100.00;94806.78;6302433;22;20176;-76
2022/08/12 07:00:45;;;;;;;14.07;10.07;;;;;;;21.80;100.00;94807.34;6302739;22;20164;-75
2022/08/12 07:03:20;;;;;;;10.40;9.38;;;;;;;21.75;100.00;94805.56;6302045;22;20172;-77
2022/08/12 07:05:47;;;;;;;11.55;9.50;;;;;;;21.74;100.00;94797.91;6302116;22;20255;-76
2022/08/12 07:08:15;;;;;;;10.55;8.20;;;;;;;21.68;100.00;94799.03;6303540;22;20949;-81
2022/08/12 07:10:46;;;;;;;10.45;8.38;;;;;;;21.69;100.00;94795.31;6284818;22;20214;-85
2022/08/12 07:13:14;;;;;;;10.90;8.32;;;;;;;21.93;100.00;94799.53;6303429;22;20174;-79
2022/08/12 07:15:42;;;;;;;13.00;8.82;;;;;;;22.04;100.00;94805.50;6302574;22;20591;-79
2022/08/12 07:18:14;;;;;;;11.50;9.10;;;;;;;22.14;100.00;94800.06;6303262;22;20194;-81
2022/08/12 07:20:43;;;;;;;9.32;7.32;;;;;;;22.28;100.00;94808.09;6302836;22;20156;-81
2022/08/12 07:23:11;;;;;;;14.68;8.93;;;;;;;22.34;100.00;94799.75;6302697;22;20199;-81
2022/08/12 07:25:38;;;;;;;12.45;8.95;;;;;;;22.35;100.00;94801.34;6301590;22;20199;-81
2022/08/12 07:28:09;;;;;;;14.82;10.40;;;;;;;22.41;100.00;94794.09;6302714;22;20168;-81
2022/08/12 07:30:40;;;;;;;17.58;10.05;;;;;;;22.49;100.00;94799.53;6302845;22;20164;-80
2022/08/12 07:33:08;;;;;;;16.38;9.88;;;;;;;22.71;100.00;94798.19;6302946;22;20153;-80
2022/08/12 07:35:41;;;;;;;17.52;10.15;;;;;;;22.87;100.00;94802.16;6302944;22;20160;-80
2022/08/12 07:38:24;;;;;;;15.63;9.65;;;;;;;22.95;100.00;94796.97;6303820;22;20160;-82
2022/08/12 07:40:54;;;;;;;16.75;9.75;;;;;;;23.00;100.00;94799.50;6304264;22;20157;-83
2022/08/12 07:43:21;;;;;;;14.27;9.57;;;;;;;22.94;100.00;94778.72;6305032;22;20254;-83
2022/08/12 07:45:52;;;;;;;14.73;9.52;;;;;;;23.12;100.00;94786.56;6303354;22;20678;-82
2022/08/12 07:48:20;;;;;;;12.35;8.98;;;;;;;23.20;100.00;94787.00;6304916;22;20149;-82
2022/08/12 07:50:47;;;;;;;16.70;9.07;;;;;;;23.33;100.00;94794.16;6304598;22;20168;-82
2022/08/12 07:53:16;;;;;;;12.85;8.10;;;;;;;23.46;100.00;94790.78;6304789;22;20172;-84
2022/08/12 07:55:48;;;;;;;15.02;7.68;;;;;;;23.64;96.88;94789.88;6304573;22;20167;-83
2022/08/12 07:58:15;;;;;;;13.00;7.10;;;;;;;23.65;93.36;94786.94;6304429;22;20157;-82
2022/08/12 08:00:43;;;;;;;10.23;6.72;;;;;;;23.63;94.97;94780.34;6303868;22;20168;-82
2022/08/12 08:03:13;;;;;;;10.13;5.70;;;;;;;23.70;91.95;94791.34;6303703;22;20230;-82
2022/08/12 08:05:45;;;;;;;7.35;5.68;;;;;;;23.77;90.66;94783.00;6304526;22;20584;-81
2022/08/12 08:08:25;;;;;;;7.82;5.00;;;;;;;23.80;88.26;94783.19;6304456;22;20654;-80
2022/08/12 08:13:39;;;;;;;6.10;4.45;;;;;;;23.79;88.30;94786.91;6301415;22;20154;-80
2022/08/12 08:16:06;;;;;;;5.47;4.63;;;;;;;23.71;87.43;94787.63;6303015;22;20178;-81
2022/08/12 08:18:44;;;;;;;8.73;4.95;;;;;;;23.60;87.08;94784.38;6302911;22;20241;-88
2022/08/12 08:21:11;;;;;;;9.18;5.88;;;;;;;23.57;88.79;94777.03;6304209;22;20160;-80
2022/08/12 08:26:25;;;;;;;7.40;5.22;;;;;;;23.55;88.24;94781.81;6302965;22;20501;-80
2022/08/12 08:28:53;;;;;;;8.90;5.00;;;;;;;23.61;88.16;94782.50;6302784;22;20243;-80
2022/08/12 08:31:20;;;;;;;6.97;4.47;;;;;;;23.61;87.18;94775.31;6302695;22;20170;-81
2022/08/12 08:33:48;;;;;;;7.97;5.03;;;;;;;23.67;87.99;94768.84;6301712;22;20627;-80
2022/08/12 08:36:16;;;;;;;5.53;4.60;;;;;;;23.63;86.68;94773.19;6302527;22;20179;-80
2022/08/12 08:38:45;;;;;;;6.07;4.85;;;;;;;23.56;86.77;94775.44;6302975;22;20164;-80
2022/08/12 08:43:59;;;;;;;5.80;4.70;;;;;;;23.45;87.55;94765.31;6300678;22;20245;-80
2022/08/12 08:46:27;;;;;;;8.02;4.95;;;;;;;23.34;86.37;94761.25;6275389;22;20192;-82
2022/08/12 08:48:56;;;;;;;7.38;4.60;;;;;;;23.35;87.09;94758.31;6286247;22;20171;-81
2022/08/12 08:51:25;;;;;;;8.98;5.15;;;;;;;23.48;87.45;94762.06;6301021;22;20172;-81
2022/08/12 08:53:52;;;;;;;8.05;5.63;;;;;;;23.47;87.87;94761.28;6300120;22;20165;-80
2022/08/12 08:56:19;;;;;;;11.85;5.57;;;;;;;23.53;85.74;94764.63;6300951;22;20836;-81
2022/08/12 08:58:46;;;;;;;9.07;5.18;;;;;;;23.57;85.99;94765.59;6302973;22;20241;-81
2022/08/12 09:01:16;;;;;;;6.35;5.47;;;;;;;23.62;87.36;94761.00;6303031;22;20175;-81
2022/08/12 09:03:43;;;;;;;8.70;5.90;;;;;;;23.63;86.35;94757.25;6304517;22;20522;-82
2022/08/12 09:06:13;;;;;;;9.18;5.75;;;;;;;23.76;85.55;94753.00;6302713;22;20313;-80
2022/08/12 09:08:40;;;;;;;8.38;6.00;;;;;;;23.90;87.23;94759.06;6303358;22;20164;-81
2022/08/12 09:13:47;;;;;;;8.05;5.50;;;;;;;24.24;83.92;94750.66;6301313;22;20148;-80
2022/08/12 09:16:15;;;;;;;5.55;4.70;;;;;;;24.44;81.96;94755.50;6302159;22;20168;-80
2022/08/12 09:18:43;;;;;;;60.58;27.40;;;;;;;24.64;83.09;94740.94;6303356;22;20174;-81
2022/08/12 09:21:11;;;;;;;23.60;12.57;;;;;;;24.92;81.21;94746.91;6302449;22;20204;-81
2022/08/12 09:23:38;;;;;;;6.30;3.80;;;;;;;25.17;79.14;94757.66;6302576;22;20202;-81
2022/08/12 09:26:05;;;;;;;8.13;4.75;;;;;;;25.38;76.96;94755.25;6303084;22;20192;-80
2022/08/12 09:28:33;;;;;;;6.00;4.00;;;;;;;25.58;77.10;94749.38;6303194;22;20168;-80
2022/08/12 09:31:02;;;;;;;5.82;4.05;;;;;;;25.72;74.57;94739.41;6303355;22;20174;-81
2022/08/12 09:33:32;;;;;;;9.68;3.65;;;;;;;25.90;75.90;94743.66;6302431;22;20250;-81
2022/08/12 09:35:59;;;;;;;5.75;3.70;;;;;;;26.11;74.27;94748.38;6303712;22;20157;-82
2022/08/12 09:38:28;;;;;;;4.00;3.45;;;;;;;26.14;72.57;94747.75;6302261;22;20538;-80
2022/08/12 09:40:55;;;;;;;5.57;3.47;;;;;;;26.20;72.00;94752.66;6303406;22;20230;-80
2022/08/12 09:46:06;;;;;;;4.15;3.30;;;;;;;26.28;71.28;94754.53;6302936;22;20255;-81
2022/08/12 09:48:33;;;;;;;4.28;3.75;;;;;;;26.21;70.79;94746.22;6302695;22;20576;-81
2022/08/12 09:51:00;;;;;;;5.25;4.05;;;;;;;26.20;71.32;94743.88;6302848;22;20246;-79
2022/08/12 09:53:28;;;;;;;8.00;4.07;;;;;;;26.13;68.13;94733.66;6302813;22;20168;-75
2022/08/12 09:55:57;;;;;;;8.05;4.57;;;;;;;26.29;69.96;94737.44;6302044;22;20160;-81
2022/08/12 09:58:27;;;;;;;6.57;3.42;;;;;;;26.49;69.24;94730.69;6299356;22;20269;-75
2022/08/12 10:00:56;;;;;;;6.43;4.28;;;;;;;26.69;70.02;94735.38;6300093;22;20152;-75
2022/08/12 10:03:25;;;;;;;6.88;3.90;;;;;;;26.85;68.05;94733.78;6300654;22;20171;-75
2022/08/12 10:05:53;;;;;;;4.30;3.30;;;;;;;27.19;68.04;94726.75;6301401;22;20464;-75
2022/08/12 10:08:20;;;;;;;5.28;3.35;;;;;;;27.42;66.42;94720.09;6300729;22;20169;-75
2022/08/12 10:13:43;;;;;;;5.20;4.05;;;;;;;27.85;63.92;94727.88;6301775;22;20206;-75
2022/08/12 10:16:16;;;;;;;3.95;3.38;;;;;;;27.88;64.47;94714.63;6302698;22;20167;-76
2022/08/12 10:18:46;;;;;;;5.85;3.85;;;;;;;27.71;63.02;94720.09;6303667;22;20171;-75
2022/08/12 10:21:15;;;;;;;4.13;3.67;;;;;;;27.52;63.25;94712.50;6302749;22;20186;-76
2022/08/12 10:23:44;;;;;;;5.15;3.95;;;;;;;27.39;62.59;94718.81;6302351;22;20204;-76
2022/08/12 10:31:45;;;;;;;4.80;3.85;;;;;;;26.90;64.05;94706.94;6301330;22;20287;-76
2022/08/12 10:34:13;;;;;;;5.60;4.55;;;;;;;26.84;64.28;94710.09;6302163;22;20170;-75
2022/08/12 10:36:41;;;;;;;5.45;4.47;;;;;;;26.65;63.29;94706.97;6302315;22;20171;-73
2022/08/12 10:39:09;;;;;;;10.10;3.90;;;;;;;26.34;64.15;94694.63;6302700;22;20168;-73
2022/08/12 10:44:22;;;;;;;5.00;4.40;;;;;;;26.18;65.99;94703.41;6301921;22;20231;-74
2022/08/12 10:46:51;;;;;;;6.63;4.10;;;;;;;26.25;67.67;94703.72;6302852;22;20200;-74
2022/08/12 10:49:18;;;;;;;3.53;3.17;;;;;;;26.32;67.21;94694.16;6302035;22;20168;-75
2022/08/12 10:51:47;;;;;;;5.30;4.07;;;;;;;26.45;68.16;94697.75;6302052;22;20172;-74
2022/08/12 10:54:18;;;;;;;6.30;4.57;;;;;;;26.54;67.50;94700.41;6302523;22;20188;-74
2022/08/12 10:56:48;;;;;;;4.60;4.10;;;;;;;26.54;64.41;94703.06;6274970;22;20608;-74
2022/08/12 10:59:20;;;;;;;5.20;4.70;;;;;;;26.31;64.71;94692.59;6301978;22;20172;-74
2022/08/12 11:01:48;;;;;;;8.20;4.40;;;;;;;26.19;64.65;94686.34;6302489;22;20163;-73
2022/08/12 11:04:15;;;;;;;5.15;4.65;;;;;;;26.15;65.95;94688.03;6302102;22;20183;-75
2022/08/12 11:06:46;;;;;;;4.75;4.20;;;;;;;26.18;64.77;94690.09;6302240;22;20203;-75
2022/08/12 11:09:16;;;;;;;5.97;4.60;;;;;;;26.26;64.78;94684.75;6302076;22;20511;-76
2022/08/12 11:11:47;;;;;;;8.45;5.18;;;;;;;26.26;65.07;94681.31;6302510;22;20168;-75
2022/08/12 11:14:27;;;;;;;7.65;4.75;;;;;;;26.21;65.55;94682.25;6301883;22;20159;-74
2022/08/12 11:16:56;;;;;;;4.50;4.10;;;;;;;26.22;64.73;94683.81;6302729;22;20144;-75
2022/08/12 11:19:25;;;;;;;8.98;4.97;;;;;;;26.31;65.89;94673.94;6300680;22;20199;-75
2022/08/12 11:21:54;;;;;;;5.90;4.53;;;;;;;26.56;64.32;94682.97;6302928;22;20261;-74
2022/08/12 11:24:25;;;;;;;5.00;4.15;;;;;;;26.59;63.87;94676.22;6301384;22;20215;-74
2022/08/12 11:26:56;;;;;;;4.70;4.22;;;;;;;26.62;63.33;94672.94;6302408;22;20182;-74
2022/08/12 11:29:26;;;;;;;6.10;4.22;;;;;;;26.52;63.49;94659.94;6302762;22;20894;-74
2022/08/12 11:31:53;;;;;;;5.28;4.40;;;;;;;26.70;64.84;94661.44;6301732;22;20199;-74
2022/08/12 11:34:21;;;;;;;6.22;3.92;;;;;;;26.97;64.23;94666.41;6300952;22;20529;-75
2022/08/12 11:36:51;;;;;;;6.72;4.60;;;;;;;27.19;63.67;94666.16;6302372;22;20168;-75
2022/08/12 11:39:19;;;;;;;8.20;4.60;;;;;;;27.36;62.97;94658.03;6301466;22;20682;-74
2022/08/12 11:41:46;;;;;;;7.30;4.45;;;;;;;27.64;63.01;94662.94;6302023;22;20171;-74
2022/08/12 11:44:14;;;;;;;6.10;4.50;;;;;;;28.16;60.63;94666.81;6301548;22;20175;-75
2022/08/12 11:46:43;;;;;;;4.50;4.10;;;;;;;28.54;59.46;94659.34;6301311;22;20199;-75
2022/08/12 11:49:11;;;;;;;6.15;3.95;;;;;;;28.73;59.29;94672.25;6301976;22;20179;-74
2022/08/12 11:51:38;;;;;;;8.55;4.60;;;;;;;28.41;59.63;94670.34;6302224;22;20196;-74
2022/08/12 11:54:06;;;;;;;4.57;4.03;;;;;;;27.83;57.65;94668.63;6301569;22;20169;-74
2022/08/12 11:56:33;;;;;;;7.55;4.00;;;;;;;27.41;59.81;94649.09;6301847;22;20168;-76
2022/08/12 11:59:00;;;;;;;6.78;3.90;;;;;;;27.26;59.41;94658.44;6302372;22;20166;-74
2022/08/12 12:01:27;;;;;;;9.32;4.47;;;;;;;27.01;58.73;94657.44;6300946;22;20742;-74
2022/08/12 12:03:55;;;;;;;6.15;4.10;;;;;;;26.88;60.16;94647.78;6302360;22;20168;-75
2022/08/12 12:06:22;;;;;;;6.63;4.32;;;;;;;26.77;59.70;94643.88;6301053;22;20172;-74
2022/08/12 12:08:49;;;;;;;4.50;4.07;;;;;;;26.70;59.54;94650.78;6302108;22;20160;-74
2022/08/12 12:11:19;;;;;;;5.60;4.43;;;;;;;26.67;60.39;94646.06;6301944;22;20237;-73
2022/08/12 12:13:46;;;;;;;5.40;4.70;;;;;;;26.65;60.31;94643.75;6302483;22;20175;-82
2022/08/12 12:16:13;;;;;;;6.68;4.10;;;;;;;26.47;61.04;94629.69;6301614;22;20187;-77
2022/08/12 12:18:41;;;;;;;8.45;4.10;;;;;;;26.64;61.49;94647.50;6302128;22;20171;-77
2022/08/12 12:21:09;;;;;;;7.63;4.15;;;;;;;26.85;61.04;94653.75;6301648;22;20175;-77
2022/08/12 12:23:36;;;;;;;7.47;4.60;;;;;;;26.79;61.14;94652.34;6301222;22;20199;-77
2022/08/12 12:26:05;;;;;;;7.18;4.40;;;;;;;26.56;62.47;94647.53;6301343;22;20706;-77
2022/08/12 12:28:31;;;;;;;6.63;4.38;;;;;;;26.58;62.02;94640.78;6303989;22;20222;-77
2022/08/12 12:30:59;;;;;;;6.45;4.10;;;;;;;26.63;61.27;94632.63;6301757;22;20199;-77
2022/08/12 12:33:25;;;;;;;6.38;4.10;;;;;;;26.65;61.60;94627.75;6301238;22;20191;-77
2022/08/12 12:35:52;;;;;;;8.40;4.28;;;;;;;26.85;61.34;94632.41;6302115;22;20218;-77
2022/08/12 12:38:21;;;;;;;5.97;3.92;;;;;;;27.04;61.53;94626.69;6301518;22;20168;-77
2022/08/12 12:40:48;;;;;;;4.50;4.10;;;;;;;27.29;61.25;94625.75;6301276;22;20393;-77
2022/08/12 12:43:16;;;;;;;5.40;4.45;;;;;;;27.44;60.68;94621.75;6301297;22;20170;-76
2022/08/12 12:45:44;;;;;;;7.90;4.63;;;;;;;27.50;59.58;94615.88;6301518;22;20206;-77
2022/08/12 12:48:12;;;;;;;4.68;4.28;;;;;;;27.37;60.03;94616.09;6300867;22;20203;-77
2022/08/12 12:50:41;;;;;;;4.63;4.22;;;;;;;27.35;61.08;94610.31;6301407;22;20547;-77
2022/08/12 12:53:09;;;;;;;11.55;4.00;;;;;;;27.44;60.41;94619.09;6301989;22;20175;-77
2022/08/12 12:55:37;;;;;;;7.38;4.03;;;;;;;27.47;59.30;94608.56;6301429;22;20175;-76
2022/08/12 12:58:10;;;;;;;4.25;3.85;;;;;;;27.41;60.09;94598.34;6301620;22;20168;-77
2022/08/12 13:00:43;;;;;;;6.03;4.60;;;;;;;27.56;59.46;94603.16;6301489;22;20559;-77
2022/08/12 13:03:11;;;;;;;6.28;4.38;;;;;;;27.74;59.36;94609.13;6301173;22;20168;-77
2022/08/12 13:05:40;;;;;;;7.50;3.95;;;;;;;27.89;57.86;94601.28;6301822;22;20165;-77
2022/08/12 13:08:23;;;;;;;4.32;3.95;;;;;;;28.32;58.01;94600.91;6301350;22;20540;-77
2022/08/12 13:10:51;;;;;;;7.63;4.35;;;;;;;28.69;58.19;94602.56;6302480;22;20152;-76
2022/08/12 13:13:19;;;;;;;4.95;3.97;;;;;;;28.85;57.01;94605.38;6301443;22;20279;-77
2022/08/12 13:15:48;;;;;;;6.15;4.32;;;;;;;28.81;56.71;94592.97;6301289;22;20175;-77
2022/08/12 13:18:15;;;;;;;5.70;3.90;;;;;;;28.96;56.14;94587.75;6301414;22;20164;-76